Time;durP1;ratioP1;P1;durP2;ratioP2;P2;SDS_P1;SDS_P2;PMS_P1;PMS_P2;Temp;Humidity;BMP_temperature;BMP_pressure;BME280_temperature;BME280_humidity;BME280_pressure;Samples;Min_cycle;Max_cycle;Signal;HPM_P1;HPM_P2
2022/11/20 00:01:40;;;;;;;35.35;14.25;;;4.20;99.90;;;;;;4986890;28;20058;-59
2022/11/20 00:04:08;;;;;;;30.85;14.18;;;4.20;99.90;;;;;;4987150;28;20046;-62
2022/11/20 00:06:33;;;;;;;31.45;13.70;;;4.20;99.90;;;;;;4988888;28;20034;-59
2022/11/20 00:08:59;;;;;;;40.15;14.10;;;4.30;99.90;;;;;;4992047;28;20439;-62
2022/11/20 00:11:27;;;;;;;38.33;14.82;;;4.20;99.90;;;;;;4993446;28;20030;-59
2022/11/20 00:13:57;;;;;;;30.23;13.82;;;4.20;99.90;;;;;;4986246;28;20101;-57
2022/11/20 00:16:24;;;;;;;35.40;14.43;;;4.20;99.90;;;;;;4984238;28;20035;-63
2022/11/20 00:18:51;;;;;;;30.23;13.18;;;4.10;99.90;;;;;;4986679;28;20037;-61
2022/11/20 00:21:22;;;;;;;30.20;13.80;;;4.10;99.90;;;;;;4990561;28;20026;-60
2022/11/20 00:23:48;;;;;;;33.20;13.88;;;4.20;99.90;;;;;;4987928;28;20066;-62
2022/11/20 00:26:16;;;;;;;28.33;12.32;;;4.10;99.90;;;;;;4989716;28;20014;-59
2022/11/20 00:28:42;;;;;;;28.90;13.00;;;4.10;99.90;;;;;;4987238;28;20512;-58
2022/11/20 00:31:15;;;;;;;37.75;14.30;;;4.10;99.90;;;;;;4984560;28;20432;-60
2022/11/20 00:33:43;;;;;;;33.83;13.95;;;4.00;99.90;;;;;;4988233;28;20038;-62
2022/11/20 00:36:14;;;;;;;29.70;12.98;;;4.10;99.90;;;;;;4986754;28;20066;-62
2022/11/20 00:38:40;;;;;;;29.77;13.88;;;4.20;99.90;;;;;;5014012;23;20098;-58
2022/11/20 00:41:08;;;;;;;27.98;12.85;;;4.10;99.90;;;;;;5009435;28;20037;-57
2022/11/20 00:43:34;;;;;;;29.67;13.52;;;4.20;99.90;;;;;;5007898;28;20022;-56
2022/11/20 00:46:09;;;;;;;29.33;13.43;;;4.10;99.90;;;;;;5005690;28;20025;-59
2022/11/20 00:48:35;;;;;;;34.10;13.70;;;4.10;99.90;;;;;;4994272;28;20084;-59
2022/11/20 00:51:01;;;;;;;29.83;12.50;;;4.20;99.90;;;;;;4989491;28;20492;-59
2022/11/20 00:53:27;;;;;;;29.67;13.23;;;4.10;99.90;;;;;;4984622;28;20544;-58
2022/11/20 00:55:57;;;;;;;29.55;13.43;;;4.20;99.90;;;;;;4989107;28;20042;-58
2022/11/20 00:58:24;;;;;;;26.95;13.40;;;;;;;;;;4989534;28;20038;-58
2022/11/20 01:00:50;;;;;;;31.50;13.48;;;;;;;;;;4987585;28;20072;-59
2022/11/20 01:03:17;;;;;;;28.23;12.93;;;;;;;;;;4991408;28;20453;-58
2022/11/20 01:05:42;;;;;;;25.98;12.18;;;;;;;;;;4989176;28;20069;-58
2022/11/20 01:08:08;;;;;;;28.35;12.55;;;;;;;;;;4994120;28;20058;-58
2022/11/20 01:10:34;;;;;;;27.80;12.32;;;;;;;;;;4990954;28;20037;-57
2022/11/20 01:15:45;;;;;;;29.52;13.57;;;;;;;;;;4987219;28;20037;-59
2022/11/20 01:18:11;;;;;;;26.55;12.73;;;;;;;;;;4991876;28;20035;-59
2022/11/20 01:20:37;;;;;;;24.75;11.63;;;;;;;;;;4991108;28;20029;-58
2022/11/20 01:23:04;;;;;;;24.35;11.45;;;;;;;;;;4992239;28;20077;-57
2022/11/20 01:25:30;;;;;;;28.85;12.15;;;;;;;;;;4989560;28;20425;-59
2022/11/20 01:27:56;;;;;;;28.33;12.57;;;;;;;;;;4982645;28;20029;-58
2022/11/20 01:30:22;;;;;;;28.15;12.55;;;;;;;;;;4986799;28;20602;-59
2022/11/20 01:32:48;;;;;;;27.08;12.95;;;;;;;;;;4984099;28;20026;-58
2022/11/20 01:35:14;;;;;;;28.27;12.40;;;;;;;;;;4987863;28;20037;-60
2022/11/20 01:37:40;;;;;;;25.33;12.43;;;;;;;;;;4990004;28;20035;-58
2022/11/20 01:40:06;;;;;;;30.98;13.93;;;4.10;99.90;;;;;;4991601;28;20492;-56
2022/11/20 01:45:58;;;;;;;27.90;11.65;;;4.00;99.90;;;;;;4946569;28;20042;-58
2022/11/20 01:48:29;;;;;;;26.60;12.80;;;4.00;99.90;;;;;;4988333;28;20122;-58
2022/11/20 01:50:56;;;;;;;28.98;13.35;;;4.00;99.90;;;;;;4988971;28;20030;-57
2022/11/20 01:53:29;;;;;;;29.70;13.02;;;4.00;99.90;;;;;;4987971;28;20083;-57
2022/11/20 01:55:58;;;;;;;31.98;13.30;;;4.10;99.90;;;;;;4995749;28;20930;-58
2022/11/20 01:58:29;;;;;;;33.28;14.15;;;4.10;99.90;;;;;;4989635;28;20095;-57
2022/11/20 02:00:55;;;;;;;28.38;13.27;;;3.90;99.90;;;;;;4989714;28;20029;-58
2022/11/20 02:03:21;;;;;;;28.75;12.80;;;3.90;99.90;;;;;;4988165;28;20034;-58
2022/11/20 02:06:03;;;;;;;33.75;13.20;;;4.00;99.90;;;;;;4989881;28;20057;-55
2022/11/20 02:08:30;;;;;;;32.70;12.85;;;3.80;99.90;;;;;;4989859;28;20108;-56
2022/11/20 02:10:55;;;;;;;34.45;14.13;;;3.70;99.90;;;;;;4991076;28;20029;-59
2022/11/20 02:16:08;;;;;;;;;;;3.60;99.90;;;;;;4987947;28;20793;-58
2022/11/20 02:18:34;;;;;;;29.63;13.25;;;3.50;99.90;;;;;;4984384;28;19914;-59
2022/11/20 02:21:18;;;;;;;30.73;12.90;;;3.50;99.90;;;;;;4989187;28;20354;-60
2022/11/20 02:24:04;;;;;;;30.73;13.30;;;3.50;99.90;;;;;;4980749;28;20026;-58
2022/11/20 02:26:34;;;;;;;32.03;13.98;;;3.60;99.90;;;;;;4987740;28;20040;-58
2022/11/20 02:29:01;;;;;;;33.30;13.38;;;3.50;99.90;;;;;;4985382;28;20030;-58
2022/11/20 02:31:27;;;;;;;31.48;14.85;;;3.60;99.90;;;;;;4989189;28;20030;-59
2022/11/20 02:33:57;;;;;;;37.90;14.35;;;3.60;99.90;;;;;;4988943;28;20089;-58
2022/11/20 02:36:25;;;;;;;29.95;14.10;;;3.60;99.90;;;;;;4990599;28;20046;-58
2022/11/20 02:38:51;;;;;;;31.30;13.63;;;3.60;99.90;;;;;;4981770;28;20030;-57
2022/11/20 02:41:17;;;;;;;30.92;13.45;;;3.60;99.90;;;;;;4990068;28;20019;-58
2022/11/20 02:43:43;;;;;;;32.40;14.63;;;3.60;99.90;;;;;;4982564;28;20389;-60
2022/11/20 02:46:09;;;;;;;36.53;12.85;;;3.60;99.90;;;;;;4994520;28;20052;-58
2022/11/20 02:48:34;;;;;;;37.88;13.65;;;3.60;99.90;;;;;;4982815;28;20026;-58
2022/11/20 02:51:00;;;;;;;31.67;13.75;;;3.70;99.90;;;;;;4983707;28;20048;-59
2022/11/20 02:53:25;;;;;;;32.75;13.90;;;3.70;99.90;;;;;;4981888;28;20134;-59
2022/11/20 02:55:51;;;;;;;29.88;13.60;;;3.80;99.90;;;;;;4985250;28;20042;-58
2022/11/20 02:58:16;;;;;;;30.33;12.75;;;3.80;99.90;;;;;;4982280;28;20120;-58
2022/11/20 03:00:42;;;;;;;25.65;12.45;;;3.70;99.90;;;;;;4990233;28;20034;-58
2022/11/20 03:03:07;;;;;;;29.88;13.50;;;3.70;99.90;;;;;;4988345;28;20038;-59
2022/11/20 03:05:33;;;;;;;29.67;13.20;;;3.60;99.90;;;;;;4989194;28;20101;-58
2022/11/20 03:07:59;;;;;;;31.55;13.55;;;3.60;99.90;;;;;;4983774;28;20064;-58
2022/11/20 03:10:24;;;;;;;32.45;13.48;;;3.60;99.90;;;;;;4987638;28;20022;-59
2022/11/20 03:12:56;;;;;;;28.63;12.48;;;3.60;99.90;;;;;;4989108;28;20026;-57
2022/11/20 03:15:23;;;;;;;26.63;13.10;;;3.60;99.90;;;;;;4983206;28;20527;-58
2022/11/20 03:17:48;;;;;;;27.05;12.23;;;3.60;99.90;;;;;;4988492;28;20126;-58
2022/11/20 03:20:14;;;;;;;27.50;13.00;;;3.70;99.90;;;;;;4975474;28;20038;-57
2022/11/20 03:22:40;;;;;;;29.98;13.60;;;3.80;99.90;;;;;;4988961;28;20023;-57
2022/11/20 03:25:06;;;;;;;27.23;12.15;;;3.80;99.90;;;;;;4987259;28;20969;-58
2022/11/20 03:27:34;;;;;;;31.95;13.00;;;3.80;99.90;;;;;;4990397;28;20054;-57
2022/11/20 03:29:59;;;;;;;29.45;12.52;;;3.80;99.90;;;;;;4987444;28;20559;-58
2022/11/20 03:32:25;;;;;;;29.42;12.68;;;3.80;99.90;;;;;;4993543;28;20065;-58
2022/11/20 03:34:50;;;;;;;26.63;12.93;;;3.80;99.90;;;;;;4988227;28;20113;-59
2022/11/20 03:37:16;;;;;;;29.15;13.23;;;3.70;99.90;;;;;;4995892;28;20026;-57
2022/11/20 03:39:41;;;;;;;30.75;12.90;;;3.70;99.90;;;;;;4988691;28;20030;-59
2022/11/20 03:42:44;;;;;;;26.88;12.82;;;3.60;99.90;;;;;;4983138;28;20030;-58
2022/11/20 03:44:53;;;;;;;28.58;12.93;;;3.60;99.90;;;;;;4978553;28;20046;-59
2022/11/20 03:47:19;;;;;;;25.42;11.48;;;3.70;99.90;;;;;;4983794;28;20030;-59
2022/11/20 03:49:44;;;;;;;27.70;12.73;;;3.70;99.90;;;;;;4983477;28;20035;-58
2022/11/20 03:52:10;;;;;;;28.50;12.63;;;3.70;99.90;;;;;;4983656;28;20410;-58
2022/11/20 03:54:35;;;;;;;26.70;11.45;;;3.80;99.90;;;;;;4983875;28;20834;-58
2022/11/20 03:57:01;;;;;;;28.33;12.00;;;3.70;99.90;;;;;;4988874;28;20109;-56
2022/11/20 03:59:26;;;;;;;30.20;13.27;;;3.70;99.90;;;;;;4988123;28;20101;-58
2022/11/20 04:01:52;;;;;;;34.03;13.73;;;3.80;99.90;;;;;;4987443;28;20026;-59
2022/11/20 04:04:17;;;;;;;29.92;13.77;;;3.70;99.90;;;;;;4988479;28;20545;-58
2022/11/20 04:06:43;;;;;;;37.83;13.63;;;3.80;99.90;;;;;;4983450;28;20033;-58
2022/11/20 04:09:08;;;;;;;32.95;14.02;;;3.90;99.90;;;;;;4986700;28;20035;-58
2022/11/20 04:11:37;;;;;;;31.77;13.38;;;3.90;99.90;;;;;;4988986;28;20396;-57
2022/11/20 04:14:05;;;;;;;30.02;12.95;;;4.00;99.90;;;;;;4992247;28;20571;-59
2022/11/20 04:16:34;;;;;;;28.58;12.88;;;3.90;99.90;;;;;;4980563;28;20050;-57
2022/11/20 04:19:01;;;;;;;31.17;13.85;;;3.80;99.90;;;;;;4986894;28;20080;-56
2022/11/20 04:21:28;;;;;;;34.80;14.35;;;3.90;99.90;;;;;;4987113;28;20033;-57
2022/11/20 04:23:54;;;;;;;36.70;15.52;;;3.80;99.90;;;;;;4987334;28;20042;-58
2022/11/20 04:26:21;;;;;;;38.05;15.07;;;3.80;99.90;;;;;;4991749;28;20033;-58
2022/11/20 04:28:46;;;;;;;37.47;15.23;;;3.70;99.90;;;;;;4990787;28;20136;-58
2022/11/20 04:31:15;;;;;;;38.70;15.65;;;3.70;99.90;;;;;;4985618;28;20117;-58
2022/11/20 04:33:41;;;;;;;33.53;14.10;;;3.60;99.90;;;;;;4985899;28;20492;-58
2022/11/20 04:36:10;;;;;;;37.63;15.32;;;3.60;99.90;;;;;;4988102;28;20038;-58
2022/11/20 04:38:36;;;;;;;34.20;14.80;;;3.60;99.90;;;;;;4990705;28;20030;-57
2022/11/20 04:41:03;;;;;;;33.22;14.88;;;3.50;99.90;;;;;;4982543;28;20026;-58
2022/11/20 04:43:29;;;;;;;33.58;14.93;;;3.50;99.90;;;;;;4985008;28;20100;-57
2022/11/20 04:45:56;;;;;;;34.33;14.73;;;3.40;99.90;;;;;;4987557;28;20368;-57
2022/11/20 04:48:23;;;;;;;40.03;15.70;;;3.50;99.90;;;;;;4982561;28;20381;-57
2022/11/20 04:50:48;;;;;;;35.10;14.50;;;3.60;99.90;;;;;;4990544;28;20380;-59
2022/11/20 04:53:14;;;;;;;36.10;14.15;;;3.70;99.90;;;;;;4992984;28;20026;-57
2022/11/20 04:55:39;;;;;;;34.63;14.57;;;3.70;99.90;;;;;;4991294;28;20088;-58
2022/11/20 04:58:05;;;;;;;39.85;15.93;;;3.80;99.90;;;;;;4992129;28;20034;-55
2022/11/20 05:00:30;;;;;;;35.92;16.80;;;3.90;99.90;;;;;;4990384;28;20031;-55
2022/11/20 05:02:56;;;;;;;35.15;15.70;;;4.00;99.90;;;;;;4988560;28;20094;-59
2022/11/20 05:05:21;;;;;;;40.95;16.77;;;4.00;99.90;;;;;;4989114;28;20054;-57
2022/11/20 05:07:47;;;;;;;39.05;15.48;;;4.00;99.90;;;;;;4989388;28;20029;-59
2022/11/20 05:10:13;;;;;;;38.70;14.85;;;4.00;99.90;;;;;;4985527;28;20029;-57
2022/11/20 05:12:38;;;;;;;36.17;15.45;;;4.10;99.90;;;;;;4990319;28;20038;-58
2022/11/20 05:15:04;;;;;;;38.45;14.95;;;4.10;99.90;;;;;;4990657;28;20149;-60
2022/11/20 05:17:29;;;;;;;37.78;15.77;;;4.20;99.90;;;;;;4988214;28;20042;-58
2022/11/20 05:19:55;;;;;;;40.35;17.67;;;4.20;99.90;;;;;;4989002;28;20040;-58
2022/11/20 05:22:21;;;;;;;39.75;16.92;;;4.10;99.90;;;;;;4994149;28;20135;-58
2022/11/20 05:24:46;;;;;;;40.92;15.52;;;4.10;99.90;;;;;;4990120;28;20081;-58
2022/11/20 05:27:11;;;;;;;40.55;15.73;;;4.10;99.90;;;;;;4988691;28;20038;-58
2022/11/20 05:29:37;;;;;;;41.25;16.50;;;4.10;99.90;;;;;;4990362;28;20022;-59
2022/11/20 05:32:03;;;;;;;36.67;15.63;;;4.10;99.90;;;;;;4985993;28;20722;-58
2022/11/20 05:34:28;;;;;;;35.20;15.25;;;4.10;99.90;;;;;;4992318;28;20034;-54
2022/11/20 05:36:54;;;;;;;43.05;17.50;;;4.10;99.90;;;;;;4988356;28;20129;-55
2022/11/20 05:39:19;;;;;;;40.95;16.35;;;4.10;99.90;;;;;;4991829;28;20092;-58
2022/11/20 05:41:45;;;;;;;43.53;17.77;;;4.10;99.90;;;;;;4991300;28;20476;-58
2022/11/20 05:44:11;;;;;;;45.22;17.63;;;4.10;99.90;;;;;;4986225;28;20035;-59
2022/11/20 05:46:36;;;;;;;39.92;17.42;;;4.20;99.90;;;;;;4991209;28;20026;-57
2022/11/20 05:49:02;;;;;;;42.13;16.48;;;4.20;99.90;;;;;;4982178;28;20100;-58
2022/11/20 05:51:27;;;;;;;39.58;15.95;;;4.30;99.90;;;;;;4990165;28;20104;-55
2022/11/20 05:53:53;;;;;;;36.55;15.13;;;4.30;99.90;;;;;;4984918;28;20030;-59
2022/11/20 05:56:20;;;;;;;38.33;15.23;;;4.30;99.90;;;;;;4986345;28;20030;-58
2022/11/20 05:58:46;;;;;;;40.75;15.88;;;4.20;99.90;;;;;;4986653;28;20108;-58
2022/11/20 06:01:21;;;;;;;40.00;15.95;;;4.00;99.90;;;;;;4985196;28;20070;-58
2022/11/20 06:03:47;;;;;;;40.55;15.90;;;3.90;99.90;;;;;;4989453;28;20019;-58
2022/11/20 06:06:14;;;;;;;37.95;16.25;;;4.00;99.90;;;;;;4992471;28;20061;-57
2022/11/20 06:08:40;;;;;;;38.22;16.15;;;4.10;99.90;;;;;;4989956;28;20026;-57
2022/11/20 06:11:07;;;;;;;42.53;17.77;;;4.10;99.90;;;;;;4986217;28;20507;-58
2022/11/20 06:13:34;;;;;;;40.38;16.17;;;4.20;99.90;;;;;;4995184;28;20030;-58
2022/11/20 06:16:00;;;;;;;38.47;16.27;;;4.20;99.90;;;;;;4988269;28;20536;-56
2022/11/20 06:18:28;;;;;;;36.10;15.05;;;4.20;99.90;;;;;;4986247;28;20026;-57
2022/11/20 06:21:08;;;;;;;42.78;15.88;;;4.30;99.90;;;;;;4982373;28;20046;-55
2022/11/20 06:23:34;;;;;;;37.45;15.98;;;4.20;99.90;;;;;;4990228;28;20168;-56
2022/11/20 06:26:07;;;;;;;38.00;15.73;;;4.20;99.90;;;;;;4988416;28;20381;-54
2022/11/20 06:28:32;;;;;;;43.25;17.27;;;4.30;99.90;;;;;;4991010;28;20463;-58
2022/11/20 06:30:58;;;;;;;39.65;15.07;;;4.40;99.90;;;;;;4981926;28;20022;-58
2022/11/20 06:33:24;;;;;;;41.35;16.20;;;4.40;99.90;;;;;;4988431;28;20218;-56
2022/11/20 06:35:49;;;;;;;41.33;16.48;;;4.20;99.90;;;;;;4989990;28;20054;-58
2022/11/20 06:40:51;;;;;;;37.33;16.23;;;4.30;99.90;;;;;;5006564;28;20504;-58
2022/11/20 06:43:16;;;;;;;40.35;16.67;;;4.40;99.90;;;;;;5005657;28;20088;-60
2022/11/20 06:45:42;;;;;;;42.47;18.35;;;4.30;99.90;;;;;;5008477;28;20026;-60
2022/11/20 06:48:09;;;;;;;43.25;16.70;;;4.30;99.90;;;;;;4999147;28;20040;-61
2022/11/20 06:50:37;;;;;;;35.83;15.73;;;4.30;99.90;;;;;;5004134;28;20109;-59
2022/11/20 06:53:04;;;;;;;41.60;17.52;;;4.30;99.90;;;;;;5007643;28;20108;-57
2022/11/20 06:55:31;;;;;;;42.53;16.15;;;4.30;99.90;;;;;;4991435;28;20026;-55
2022/11/20 06:57:57;;;;;;;44.67;17.73;;;4.30;99.90;;;;;;5004991;28;20021;-58
2022/11/20 07:00:23;;;;;;;43.53;17.75;;;4.30;99.90;;;;;;4987970;28;20030;-61
2022/11/20 07:02:48;;;;;;;45.78;18.27;;;4.30;99.90;;;;;;5006646;28;20022;-58
2022/11/20 07:05:14;;;;;;;41.45;16.55;;;4.20;99.90;;;;;;5007051;28;20038;-58
2022/11/20 07:07:39;;;;;;;42.97;15.80;;;4.30;99.90;;;;;;5009284;28;20022;-59
2022/11/20 07:10:05;;;;;;;43.25;16.42;;;4.30;99.90;;;;;;5004430;28;20034;-55
2022/11/20 07:12:31;;;;;;;40.85;16.15;;;4.20;99.90;;;;;;5005234;28;20534;-58
2022/11/20 07:14:56;;;;;;;50.58;18.65;;;4.10;99.90;;;;;;5001254;28;20038;-59
2022/11/20 07:17:22;;;;;;;36.50;16.85;;;4.10;99.90;;;;;;5004498;28;20113;-58
2022/11/20 07:19:47;;;;;;;38.67;16.13;;;4.00;99.90;;;;;;5008136;28;20033;-57
2022/11/20 07:22:13;;;;;;;42.38;16.35;;;4.00;99.90;;;;;;5000445;28;20038;-59
2022/11/20 07:24:38;;;;;;;44.45;16.63;;;4.00;99.90;;;;;;5006160;28;20057;-59
2022/11/20 07:27:04;;;;;;;38.92;16.58;;;4.00;99.90;;;;;;5006194;28;20116;-58
2022/11/20 07:29:30;;;;;;;38.95;16.20;;;4.00;99.90;;;;;;5016113;28;20026;-55
2022/11/20 07:31:56;;;;;;;38.70;17.42;;;4.00;99.90;;;;;;5011054;28;20499;-55
2022/11/20 07:34:22;;;;;;;40.40;16.08;;;4.00;99.90;;;;;;4998871;28;20041;-60
2022/11/20 07:36:47;;;;;;;38.45;15.07;;;4.10;99.90;;;;;;5005880;28;20031;-60
2022/11/20 07:39:13;;;;;;;44.88;16.77;;;4.00;99.90;;;;;;5000258;28;20424;-58
2022/11/20 07:41:38;;;;;;;38.05;16.52;;;4.10;99.90;;;;;;5001262;28;20080;-57
2022/11/20 07:44:04;;;;;;;37.08;14.95;;;4.10;99.90;;;;;;5010854;28;20026;-59
2022/11/20 07:46:30;;;;;;;35.50;16.08;;;4.20;99.90;;;;;;5004366;28;20814;-58
2022/11/20 07:48:56;;;;;;;45.90;16.20;;;4.20;99.90;;;;;;5001950;28;20119;-61
2022/11/20 07:51:21;;;;;;;35.70;14.27;;;4.20;99.90;;;;;;4997629;28;20040;-59
2022/11/20 07:53:47;;;;;;;36.58;15.05;;;4.30;99.90;;;;;;4995518;28;20044;-59
2022/11/20 07:56:13;;;;;;;38.42;15.70;;;4.30;99.90;;;;;;5001868;28;20033;-60
2022/11/20 07:58:39;;;;;;;38.80;15.90;;;4.40;99.90;;;;;;4997957;28;21261;-60
2022/11/20 08:01:07;;;;;;;39.08;16.65;;;4.40;99.90;;;;;;4999218;28;20026;-59
2022/11/20 08:03:33;;;;;;;35.83;16.10;;;4.40;99.90;;;;;;4997992;28;20022;-60
2022/11/20 08:06:00;;;;;;;41.38;15.98;;;4.30;99.90;;;;;;5000373;28;20026;-61
2022/11/20 08:08:26;;;;;;;38.60;16.75;;;4.40;99.90;;;;;;5001199;28;20065;-60
2022/11/20 08:10:51;;;;;;;40.08;17.60;;;4.40;99.90;;;;;;4999714;28;20108;-62
2022/11/20 08:16:01;;;;;;;34.83;15.70;;;4.40;99.90;;;;;;4999920;28;20164;-61
2022/11/20 08:18:26;;;;;;;39.65;17.52;;;4.50;99.90;;;;;;5001561;28;20523;-61
2022/11/20 08:20:52;;;;;;;37.53;14.73;;;4.60;99.90;;;;;;5000915;28;20022;-58
2022/11/20 08:23:17;;;;;;;36.88;17.00;;;4.70;99.90;;;;;;4997949;28;20033;-58
2022/11/20 08:25:43;;;;;;;42.45;17.48;;;4.70;99.90;;;;;;5001209;28;20032;-58
2022/11/20 08:28:09;;;;;;;44.70;17.08;;;4.70;99.90;;;;;;5004558;28;20084;-58
2022/11/20 08:30:36;;;;;;;47.45;18.95;;;4.70;99.90;;;;;;5007260;28;20105;-62
2022/11/20 08:33:03;;;;;;;43.42;16.73;;;4.80;99.90;;;;;;5008056;28;20026;-60
2022/11/20 08:35:33;;;;;;;41.88;17.60;;;4.80;99.90;;;;;;5007616;28;20476;-62
2022/11/20 08:37:59;;;;;;;42.28;17.50;;;4.80;99.90;;;;;;5009253;28;20128;-61
2022/11/20 08:40:24;;;;;;;44.38;18.25;;;4.90;99.90;;;;;;5004652;28;20134;-61
2022/11/20 08:42:51;;;;;;;38.65;17.85;;;4.80;99.90;;;;;;5009726;28;20104;-60
2022/11/20 08:45:18;;;;;;;41.40;16.20;;;4.70;99.90;;;;;;4998775;28;20022;-61
2022/11/20 08:47:44;;;;;;;43.28;17.38;;;4.80;99.90;;;;;;5002935;28;20117;-61
2022/11/20 08:50:11;;;;;;;49.30;20.25;;;4.80;99.90;;;;;;5008860;28;20574;-61
2022/11/20 08:52:37;;;;;;;48.22;18.98;;;5.00;99.90;;;;;;5011818;28;20025;-59
2022/11/20 08:55:04;;;;;;;45.95;18.25;;;5.20;99.90;;;;;;5008108;28;20416;-60
2022/11/20 08:57:34;;;;;;;42.17;17.15;;;5.30;99.90;;;;;;5007390;28;20072;-62
2022/11/20 09:00:00;;;;;;;45.55;18.63;;;5.10;99.90;;;;;;5005477;28;20034;-60
2022/11/20 09:02:25;;;;;;;44.90;17.85;;;5.10;99.90;;;;;;5006138;28;20081;-59
2022/11/20 09:04:51;;;;;;;47.00;18.63;;;5.20;99.90;;;;;;5008966;28;20026;-63
2022/11/20 09:07:16;;;;;;;44.22;18.58;;;5.30;99.90;;;;;;5007188;28;20019;-59
2022/11/20 09:09:42;;;;;;;55.83;17.85;;;5.40;99.90;;;;;;5021403;28;20033;-58
2022/11/20 09:12:08;;;;;;;43.05;16.92;;;5.40;99.90;;;;;;5011978;28;20042;-61
2022/11/20 09:14:33;;;;;;;50.63;18.17;;;5.40;99.90;;;;;;5010074;28;20049;-61
2022/11/20 09:16:59;;;;;;;36.75;16.52;;;5.40;99.90;;;;;;5017091;28;20029;-62
2022/11/20 09:19:25;;;;;;;41.35;17.52;;;5.40;99.90;;;;;;5013831;28;20088;-62
2022/11/20 09:21:51;;;;;;;44.00;18.70;;;5.30;99.90;;;;;;5009110;28;20026;-62
2022/11/20 09:24:16;;;;;;;41.38;16.52;;;5.30;99.90;;;;;;5010643;28;20038;-62
2022/11/20 09:26:43;;;;;;;35.65;15.63;;;5.40;99.90;;;;;;5011645;28;20116;-61
2022/11/20 09:29:09;;;;;;;41.80;16.77;;;5.40;99.90;;;;;;5012835;28;20117;-59
2022/11/20 09:31:34;;;;;;;40.72;15.68;;;5.30;99.90;;;;;;5008772;28;20037;-60
2022/11/20 09:34:00;;;;;;;37.67;15.40;;;5.40;99.90;;;;;;5011498;28;20101;-63
2022/11/20 09:36:26;;;;;;;39.15;16.33;;;5.50;99.90;;;;;;5006559;28;20040;-62
2022/11/20 09:38:52;;;;;;;37.05;15.00;;;5.50;99.90;;;;;;5010540;28;20114;-61
2022/11/20 09:41:35;;;;;;;39.83;14.57;;;5.50;99.90;;;;;;5013112;28;20420;-59
2022/11/20 09:44:30;;;;;;;41.78;17.23;;;5.60;99.90;;;;;;5004605;28;20080;-60
2022/11/20 09:47:20;;;;;;;38.30;15.32;;;5.70;99.90;;;;;;5005967;28;20037;-60
2022/11/20 09:49:55;;;;;;;38.60;14.93;;;5.90;99.90;;;;;;5017685;28;20038;-60
2022/11/20 09:52:24;;;;;;;;;;;5.90;99.90;;;;;;4989183;28;20022;-56
2022/11/20 09:54:51;;;;;;;40.47;16.58;;;5.80;99.90;;;;;;5017924;28;20406;-61
2022/11/20 09:57:24;;;;;;;43.35;17.27;;;5.70;99.90;;;;;;5011970;28;20032;-61
2022/11/20 09:59:59;;;;;;;37.22;15.75;;;5.50;99.90;;;;;;5008919;28;20496;-61
2022/11/20 10:02:30;;;;;;;39.33;16.83;;;5.60;99.90;;;;;;5006805;28;20123;-60
2022/11/20 10:05:21;;;;;;;41.22;18.58;;;5.60;99.90;;;;;;5008881;28;20029;-62
2022/11/20 10:08:22;;;;;;;46.35;19.13;;;5.70;99.90;;;;;;5010399;28;20080;-56
2022/11/20 10:11:12;;;;;;;42.30;18.00;;;5.70;99.90;;;;;;5006763;28;20380;-60
2022/11/20 10:14:16;;;;;;;39.85;16.58;;;5.60;99.90;;;;;;5004610;28;20018;-61
2022/11/20 10:17:02;;;;;;;48.90;18.60;;;5.60;99.90;;;;;;4984535;28;20038;-59
2022/11/20 10:20:02;;;;;;;40.47;16.23;;;5.50;99.90;;;;;;5007212;28;20088;-60
2022/11/20 10:22:47;;;;;;;46.92;18.75;;;5.60;99.90;;;;;;5002390;28;20061;-58
2022/11/20 10:25:21;;;;;;;45.78;19.02;;;5.70;99.90;;;;;;5005546;28;20554;-60
2022/11/20 10:28:16;;;;;;;43.25;17.77;;;5.80;99.90;;;;;;5003325;28;20038;-59
2022/11/20 10:30:44;;;;;;;51.85;20.00;;;5.90;99.90;;;;;;5003061;28;20384;-59
2022/11/20 10:33:23;;;;;;;48.08;17.05;;;6.00;99.90;;;;;;5003766;28;20030;-61
2022/11/20 10:35:52;;;;;;;46.25;18.10;;;6.10;99.90;;;;;;5003742;28;20033;-60
2022/11/20 10:38:24;;;;;;;43.95;16.63;;;6.20;99.90;;;;;;5004436;28;20022;-61
2022/11/20 10:41:24;;;;;;;44.72;18.13;;;6.20;99.90;;;;;;5006181;28;20129;-62
2022/11/20 10:43:40;;;;;;;42.92;17.45;;;6.20;99.90;;;;;;5004776;28;20022;-58
2022/11/20 10:46:15;;;;;;;42.85;17.08;;;6.20;99.90;;;;;;5001285;28;20463;-62
2022/11/20 10:48:43;;;;;;;40.20;17.95;;;6.10;99.90;;;;;;5001444;28;20022;-60
2022/11/20 10:51:37;;;;;;;45.88;17.75;;;6.10;99.90;;;;;;5006230;28;20029;-60
2022/11/20 10:54:34;;;;;;;35.95;15.77;;;6.20;99.90;;;;;;5013010;28;20029;-62
2022/11/20 10:57:35;;;;;;;45.03;16.75;;;6.00;99.90;;;;;;4999336;28;20666;-55
2022/11/20 11:00:06;;;;;;;41.38;17.65;;;5.90;99.90;;;;;;4983013;28;20046;-60
2022/11/20 11:02:53;;;;;;;42.78;18.17;;;5.90;99.90;;;;;;5008824;28;20029;-57
2022/11/20 11:05:43;;;;;;;43.33;18.38;;;5.90;99.90;;;;;;5000048;28;20073;-61
2022/11/20 11:08:14;;;;;;;45.58;19.33;;;5.90;99.90;;;;;;5006745;28;20569;-62
2022/11/20 11:10:59;;;;;;;47.85;17.50;;;5.80;99.90;;;;;;5003739;28;20484;-59
2022/11/20 11:13:26;;;;;;;41.90;17.23;;;5.80;99.90;;;;;;5008382;28;20392;-60
2022/11/20 11:15:52;;;;;;;39.85;17.13;;;5.80;99.90;;;;;;5001478;28;20034;-59
2022/11/20 11:18:32;;;;;;;48.22;17.88;;;5.90;99.90;;;;;;5009925;28;20080;-62
2022/11/20 11:21:00;;;;;;;38.85;16.55;;;5.90;99.90;;;;;;5005408;28;20026;-62
2022/11/20 11:23:36;;;;;;;43.70;18.13;;;5.90;99.90;;;;;;5000936;28;20030;-61
2022/11/20 11:26:05;;;;;;;42.83;17.40;;;6.10;99.90;;;;;;5007846;28;20034;-61
2022/11/20 11:28:32;;;;;;;44.20;15.82;;;6.10;99.90;;;;;;5016028;28;20022;-61
2022/11/20 11:30:57;;;;;;;44.03;17.95;;;6.20;99.90;;;;;;5008307;28;20021;-61
2022/11/20 11:33:26;;;;;;;44.10;17.83;;;6.30;99.90;;;;;;5018846;28;20391;-60
2022/11/20 11:35:56;;;;;;;40.95;17.88;;;6.20;99.90;;;;;;5004343;28;20037;-62
2022/11/20 11:38:45;;;;;;;40.92;15.70;;;6.40;99.90;;;;;;5006070;28;20116;-56
2022/11/20 11:41:22;;;;;;;42.55;16.83;;;6.40;99.90;;;;;;5003371;28;20034;-63
2022/11/20 11:46:52;;;;;;;40.50;17.20;;;6.40;99.90;;;;;;5003125;28;20040;-64
2022/11/20 11:49:19;;;;;;;40.53;17.40;;;6.40;99.90;;;;;;5003422;28;20057;-63
2022/11/20 11:51:59;;;;;;;42.35;18.27;;;6.30;99.90;;;;;;5002836;28;20030;-60
2022/11/20 11:55:02;;;;;;;40.65;17.98;;;6.20;99.90;;;;;;5004297;28;20022;-61
2022/11/20 11:57:42;;;;;;;38.67;16.80;;;6.20;99.90;;;;;;4978106;28;20039;-61
2022/11/20 12:00:20;;;;;;;43.20;18.15;;;6.20;99.90;;;;;;5008594;28;20052;-61
2022/11/20 12:02:45;;;;;;;44.90;17.85;;;6.30;99.90;;;;;;5008110;28;20084;-64
2022/11/20 12:05:38;;;;;;;38.25;16.58;;;6.20;99.90;;;;;;5006310;28;20042;-63
2022/11/20 12:08:22;;;;;;;44.53;18.02;;;6.30;99.90;;;;;;5001789;28;20045;-61
2022/11/20 12:11:05;;;;;;;39.58;16.60;;;6.30;99.90;;;;;;4998062;28;20049;-62
2022/11/20 12:13:45;;;;;;;39.75;16.00;;;6.40;99.90;;;;;;5005523;28;20042;-61
2022/11/20 12:16:14;;;;;;;40.65;16.60;;;6.40;99.90;;;;;;5000605;28;20160;-63
2022/11/20 12:18:41;;;;;;;45.65;16.58;;;6.40;99.90;;;;;;5003038;28;20053;-59
2022/11/20 12:21:18;;;;;;;45.78;17.13;;;6.20;99.90;;;;;;5001954;28;20571;-62
2022/11/20 12:24:18;;;;;;;40.28;16.77;;;6.10;99.90;;;;;;4997098;28;20030;-61
2022/11/20 12:27:02;;;;;;;43.00;17.70;;;6.10;99.90;;;;;;5003987;28;20029;-58
2022/11/20 12:30:02;;;;;;;40.20;16.80;;;6.10;99.90;;;;;;5006811;28;20690;-59
2022/11/20 12:33:08;;;;;;;40.40;17.02;;;6.20;99.90;;;;;;5008301;28;20049;-64
2022/11/20 12:36:06;;;;;;;41.42;16.77;;;6.30;99.90;;;;;;4988787;28;20052;-64
2022/11/20 12:38:55;;;;;;;42.78;17.38;;;6.40;99.90;;;;;;5003262;28;20395;-65
2022/11/20 12:45:10;;;;;;;41.45;16.30;;;6.50;99.90;;;;;;4999072;28;20068;-61
2022/11/20 12:48:00;;;;;;;42.70;17.50;;;6.40;99.90;;;;;;5008659;28;20037;-61
2022/11/20 12:51:07;;;;;;;43.95;16.58;;;6.40;99.90;;;;;;5011006;28;20033;-63
2022/11/20 12:53:58;;;;;;;44.63;17.73;;;6.50;99.90;;;;;;5010578;28;20037;-62
2022/11/20 12:56:39;;;;;;;40.63;17.92;;;6.50;99.90;;;;;;5006154;28;20025;-65
2022/11/20 12:59:33;;;;;;;35.13;15.45;;;6.60;99.90;;;;;;5002768;28;20042;-62
2022/11/20 13:02:35;;;;;;;36.33;16.10;;;6.50;99.90;;;;;;5003967;28;20415;-61
2022/11/20 13:05:17;;;;;;;37.10;16.67;;;6.60;99.90;;;;;;5010731;28;20028;-58
2022/11/20 13:07:44;;;;;;;36.83;16.13;;;6.60;99.90;;;;;;5007435;28;20026;-60
2022/11/20 13:11:01;;;;;;;37.55;15.93;;;6.70;99.90;;;;;;5017016;23;20060;-55
2022/11/20 13:13:43;;;;;;;37.58;15.75;;;6.70;99.90;;;;;;4994938;28;20041;-55
2022/11/20 13:16:22;;;;;;;39.50;16.90;;;6.80;99.90;;;;;;5012135;28;20488;-55
2022/11/20 13:18:47;;;;;;;41.50;16.65;;;6.80;99.90;;;;;;5009717;28;20092;-55
2022/11/20 13:21:15;;;;;;;40.58;15.70;;;6.80;99.90;;;;;;4994793;28;20476;-55